createdAt,value
2022-11-17T00:02:15.006Z,86.10
2022-11-17T00:04:43.255Z,88.80
2022-11-17T00:07:11.290Z,90.60
2022-11-17T00:09:39.288Z,91.20
2022-11-17T00:12:31.391Z,91.10
2022-11-17T00:15:00.733Z,92.50
2022-11-17T00:17:28.672Z,92.90
2022-11-17T00:20:10.476Z,92.80
2022-11-17T00:22:38.428Z,93.00
2022-11-17T00:25:06.934Z,93.40
2022-11-17T00:27:36.287Z,94.00
2022-11-17T00:30:04.750Z,94.40
2022-11-17T00:32:50.173Z,93.60
2022-11-17T00:35:18.246Z,92.40
2022-11-17T00:38:00.079Z,91.80
2022-11-17T00:40:28.305Z,91.50
2022-11-17T00:42:57.710Z,91.00
2022-11-17T00:45:25.695Z,91.80
2022-11-17T00:47:53.609Z,92.60
2022-11-17T00:50:21.537Z,92.90
2022-11-17T00:52:49.514Z,93.80
2022-11-17T00:55:17.678Z,93.40
2022-11-17T00:57:45.738Z,92.20
2022-11-17T01:00:16.690Z,93.00
2022-11-17T01:02:46.037Z,93.80
2022-11-17T01:05:13.997Z,94.60
2022-11-17T01:07:41.923Z,94.10
2022-11-17T01:10:10.620Z,94.20
2022-11-17T01:12:38.740Z,94.50
2022-11-17T01:15:07.543Z,93.40
2022-11-17T01:17:35.528Z,93.40
2022-11-17T01:20:05.589Z,93.80
2022-11-17T01:22:33.556Z,94.00
2022-11-17T01:25:01.576Z,94.60
2022-11-17T01:27:29.528Z,94.20
2022-11-17T01:29:57.487Z,94.10
2022-11-17T01:32:25.461Z,93.60
2022-11-17T01:34:53.408Z,93.00
2022-11-17T01:37:22.731Z,92.90
2022-11-17T01:39:51.277Z,92.20
2022-11-17T01:42:21.357Z,92.60
2022-11-17T01:44:58.687Z,92.80
2022-11-17T01:47:32.665Z,93.00
2022-11-17T01:50:05.829Z,93.20
2022-11-17T01:52:37.296Z,93.60
2022-11-17T01:55:07.883Z,94.40
2022-11-17T01:57:41.773Z,94.90
2022-11-17T02:00:11.497Z,95.20
2022-11-17T02:02:41.930Z,94.80
2022-11-17T02:05:23.655Z,94.30
2022-11-17T02:07:55.782Z,94.10
2022-11-17T02:10:23.776Z,93.70
2022-11-17T02:12:53.280Z,93.90
2022-11-17T02:15:21.822Z,94.40
2022-11-17T02:17:51.710Z,94.50
2022-11-17T02:20:27.893Z,94.70
2022-11-17T02:23:24.550Z,95.20
2022-11-17T02:26:07.696Z,96.60
2022-11-17T02:28:38.525Z,97.60
2022-11-17T02:31:20.045Z,97.50
2022-11-17T02:36:33.512Z,99.40
2022-11-17T02:39:10.921Z,99.10
2022-11-17T02:41:47.494Z,98.60
2022-11-17T02:44:21.710Z,96.40
2022-11-17T02:46:55.448Z,94.20
2022-11-17T02:49:27.008Z,93.10
2022-11-17T02:51:57.862Z,93.70
2022-11-17T03:02:21.097Z,93.00
2022-11-17T03:05:04.501Z,91.80
2022-11-17T03:07:49.470Z,92.00
2022-11-17T03:10:21.108Z,91.80
2022-11-17T03:12:55.957Z,92.40
2022-11-17T03:15:34.737Z,93.30
2022-11-17T03:18:09.352Z,93.90
2022-11-17T03:20:45.333Z,94.10
2022-11-17T03:23:19.379Z,93.80
2022-11-17T03:25:51.465Z,93.50
2022-11-17T03:28:22.714Z,92.40
2022-11-17T03:30:53.264Z,92.80
2022-11-17T03:33:24.545Z,92.30
2022-11-17T03:35:58.128Z,93.00
2022-11-17T03:38:30.008Z,93.20
2022-11-17T03:41:03.096Z,93.30
2022-11-17T03:43:32.721Z,93.60
2022-11-17T03:46:06.179Z,94.00
2022-11-17T03:48:37.862Z,94.10
2022-11-17T03:51:09.266Z,93.90
2022-11-17T03:53:38.186Z,94.80
2022-11-17T03:56:16.088Z,96.20
2022-11-17T03:58:54.442Z,96.40
2022-11-17T04:01:25.632Z,96.80
2022-11-17T04:03:54.204Z,97.20
2022-11-17T04:06:22.194Z,97.60
2022-11-17T04:08:50.174Z,98.00
2022-11-17T04:11:35.674Z,98.00
2022-11-17T04:14:21.255Z,98.00
2022-11-17T04:16:50.548Z,98.40
2022-11-17T04:19:18.495Z,99.00
2022-11-17T04:21:46.448Z,99.30
2022-11-17T04:24:14.364Z,99.80
2022-11-17T04:26:59.728Z,99.90
2022-11-17T04:29:28.486Z,99.80
2022-11-17T04:31:57.839Z,99.90
2022-11-17T04:34:25.759Z,99.90
2022-11-17T04:36:53.881Z,99.90
2022-11-17T04:39:21.824Z,99.60
2022-11-17T04:41:54.680Z,99.90
2022-11-17T04:44:24.635Z,99.90
2022-11-17T04:46:53.286Z,99.90
2022-11-17T04:49:23.708Z,99.90
2022-11-17T04:51:52.569Z,99.90
2022-11-17T04:54:23.695Z,99.90
2022-11-17T04:56:52.504Z,99.90
2022-11-17T04:59:20.501Z,99.90
2022-11-17T05:01:48.950Z,99.90
2022-11-17T05:04:40.279Z,99.90
2022-11-17T05:07:10.248Z,99.90
2022-11-17T05:09:38.401Z,99.90
2022-11-17T05:12:25.223Z,99.90
2022-11-17T05:14:53.165Z,99.90
2022-11-17T05:17:20.161Z,99.90
2022-11-17T05:19:49.448Z,99.90
2022-11-17T05:22:37.941Z,99.90
2022-11-17T05:25:07.200Z,99.90
2022-11-17T05:27:35.416Z,99.90
2022-11-17T05:30:04.015Z,99.90
2022-11-17T05:32:31.962Z,99.90
2022-11-17T05:34:59.919Z,99.90
2022-11-17T05:37:29.250Z,99.90
2022-11-17T05:39:57.223Z,99.90
2022-11-17T05:42:25.198Z,99.90
2022-11-17T05:44:53.182Z,99.90
2022-11-17T05:47:21.131Z,99.90
2022-11-17T05:49:49.054Z,99.90
2022-11-17T05:52:16.990Z,99.90
2022-11-17T05:54:46.322Z,99.90
2022-11-17T05:57:17.922Z,99.80
2022-11-17T05:59:50.471Z,99.80
2022-11-17T06:02:24.117Z,99.90
2022-11-17T06:04:53.066Z,99.60
2022-11-17T06:07:21.233Z,99.90
2022-11-17T06:09:52.052Z,99.80
2022-11-17T06:12:20.028Z,99.90
2022-11-17T06:14:48.000Z,99.90
2022-11-17T06:17:23.016Z,99.90
2022-11-17T06:19:55.485Z,99.90
2022-11-17T06:22:23.571Z,99.90
2022-11-17T06:24:52.867Z,99.90
2022-11-17T06:27:20.878Z,99.90
2022-11-17T06:29:49.756Z,99.90
2022-11-17T06:32:19.716Z,99.90
2022-11-17T06:34:55.151Z,99.90
2022-11-17T06:37:24.531Z,99.90
2022-11-17T06:39:54.002Z,99.90
2022-11-17T06:42:42.875Z,99.90
2022-11-17T06:45:11.579Z,99.70
2022-11-17T06:47:39.707Z,99.90
2022-11-17T06:50:08.577Z,99.90
2022-11-17T06:52:36.569Z,99.90
2022-11-17T06:55:06.665Z,99.90
2022-11-17T06:57:34.673Z,99.90
2022-11-17T07:00:02.815Z,99.90
2022-11-17T07:02:32.697Z,99.90
2022-11-17T07:05:00.746Z,99.90
2022-11-17T07:07:28.782Z,99.90
2022-11-17T07:09:56.850Z,99.90
2022-11-17T07:12:26.201Z,99.90
2022-11-17T07:14:54.404Z,99.90
2022-11-17T07:17:22.435Z,99.90
2022-11-17T07:19:50.488Z,99.90
2022-11-17T07:22:18.618Z,99.90
2022-11-17T07:24:46.622Z,99.90
2022-11-17T07:27:14.653Z,99.90
2022-11-17T07:29:44.030Z,99.90
2022-11-17T07:32:13.868Z,99.90
2022-11-17T07:34:42.636Z,99.90
2022-11-17T07:37:10.677Z,99.90
2022-11-17T07:39:38.696Z,99.40
2022-11-17T07:42:06.813Z,97.60
2022-11-17T07:44:34.983Z,96.90
2022-11-17T07:47:04.316Z,96.40
2022-11-17T07:49:32.302Z,95.40
2022-11-17T07:52:00.314Z,93.70
2022-11-17T07:54:28.330Z,94.40
2022-11-17T07:56:56.401Z,93.60
2022-11-17T07:59:24.447Z,94.00
2022-11-17T08:01:52.441Z,93.00
2022-11-17T08:04:21.853Z,92.60
2022-11-17T08:06:49.937Z,93.40
2022-11-17T08:09:18.036Z,91.80
2022-11-17T08:11:46.078Z,93.20
2022-11-17T08:14:14.070Z,93.40
2022-11-17T08:16:42.167Z,94.20
2022-11-17T08:19:12.023Z,92.70
2022-11-17T08:21:42.137Z,93.50
2022-11-17T08:24:10.290Z,93.20
2022-11-17T08:26:38.354Z,92.10
2022-11-17T08:29:06.379Z,92.00
2022-11-17T08:31:34.661Z,93.00
2022-11-17T08:34:02.675Z,91.80
2022-11-17T08:36:30.671Z,91.30
2022-11-17T08:39:00.050Z,91.20
2022-11-17T08:41:28.082Z,92.10
2022-11-17T08:43:56.103Z,91.10
2022-11-17T08:46:25.785Z,91.80
2022-11-17T08:48:56.944Z,91.10
2022-11-17T08:51:27.276Z,90.50
2022-11-17T08:53:55.421Z,91.50
2022-11-17T08:56:24.866Z,88.60
2022-11-17T08:58:52.880Z,90.50
2022-11-17T09:01:21.155Z,89.20
2022-11-17T09:03:49.593Z,87.90
2022-11-17T09:06:20.041Z,85.00
2022-11-17T09:08:48.680Z,86.20
2022-11-17T09:11:17.121Z,87.00
2022-11-17T09:13:47.051Z,85.00
2022-11-17T09:16:16.529Z,85.60
2022-11-17T09:18:44.908Z,87.00
2022-11-17T09:21:15.213Z,86.00
2022-11-17T09:23:43.834Z,85.00
2022-11-17T09:26:13.428Z,83.10
2022-11-17T09:28:42.055Z,83.60
2022-11-17T09:31:13.568Z,84.70
2022-11-17T09:33:42.069Z,85.70
2022-11-17T09:36:10.921Z,83.00
2022-11-17T09:38:39.285Z,84.50
2022-11-17T09:41:19.540Z,81.10
2022-11-17T09:43:52.002Z,83.00
2022-11-17T09:48:59.275Z,77.70
2022-11-17T09:51:30.752Z,78.50
2022-11-17T09:54:04.678Z,78.80
2022-11-17T09:56:33.122Z,81.70
2022-11-17T09:59:05.157Z,77.00
2022-11-17T10:01:34.689Z,79.40
2022-11-17T10:04:02.727Z,78.10
2022-11-17T10:06:33.016Z,76.50
2022-11-17T10:09:05.928Z,77.00
2022-11-17T10:11:36.636Z,76.70
2022-11-17T10:14:13.705Z,76.00
2022-11-17T10:16:45.640Z,71.90
2022-11-17T10:19:17.960Z,73.40
2022-11-17T10:21:48.298Z,76.60
2022-11-17T10:24:34.776Z,71.50
2022-11-17T10:27:04.103Z,74.30
2022-11-17T10:29:32.161Z,73.70
2022-11-17T10:32:03.818Z,72.40
2022-11-17T10:34:40.211Z,71.10
2022-11-17T10:37:25.394Z,72.70
2022-11-17T10:40:10.087Z,73.50
2022-11-17T10:42:38.115Z,73.00
2022-11-17T10:45:07.474Z,73.50
2022-11-17T10:47:39.319Z,74.90
2022-11-17T10:50:18.571Z,74.80
2022-11-17T10:52:46.844Z,71.30
2022-11-17T10:55:20.909Z,73.50
2022-11-17T10:57:53.642Z,74.10
2022-11-17T11:00:28.091Z,73.80
2022-11-17T11:03:19.581Z,72.40
2022-11-17T11:06:06.209Z,71.90
2022-11-17T11:08:51.032Z,72.30
2022-11-17T11:11:26.719Z,73.10
2022-11-17T11:13:58.643Z,72.20
2022-11-17T11:16:30.271Z,72.80
2022-11-17T11:18:59.663Z,74.00
2022-11-17T11:21:43.550Z,72.90
2022-11-17T11:24:20.791Z,73.70
2022-11-17T11:26:57.802Z,75.00
2022-11-17T11:29:41.915Z,72.50
2022-11-17T11:32:24.701Z,72.10
2022-11-17T11:35:17.468Z,72.00
2022-11-17T11:37:52.096Z,71.70
2022-11-17T11:40:27.826Z,71.50
2022-11-17T11:42:59.530Z,71.20
2022-11-17T11:45:46.216Z,71.90
2022-11-17T11:48:24.864Z,72.20
2022-11-17T11:50:57.597Z,70.90
2022-11-17T11:53:36.133Z,71.00
2022-11-17T11:56:15.876Z,70.50
2022-11-17T11:58:48.134Z,73.10
2022-11-17T12:01:18.870Z,71.10
2022-11-17T12:03:53.789Z,69.50
2022-11-17T12:06:43.086Z,70.50
2022-11-17T12:09:31.222Z,68.70
2022-11-17T12:12:03.345Z,67.60
2022-11-17T12:14:33.073Z,69.00
2022-11-17T12:17:17.193Z,68.00
2022-11-17T12:19:57.233Z,67.30
2022-11-17T12:22:54.294Z,68.00
2022-11-17T12:25:28.218Z,68.10
2022-11-17T12:27:56.494Z,66.20
2022-11-17T12:30:52.615Z,69.20
2022-11-17T12:33:20.914Z,69.20
2022-11-17T12:36:31.240Z,68.10
2022-11-17T12:39:02.149Z,67.60
2022-11-17T12:42:07.830Z,69.00
2022-11-17T12:45:00.859Z,68.20
2022-11-17T12:47:31.241Z,67.10
2022-11-17T12:50:33.574Z,67.40
2022-11-17T12:53:27.105Z,68.30
2022-11-17T12:56:33.722Z,67.10
2022-11-17T13:04:17.806Z,67.80
2022-11-17T13:09:33.327Z,66.30
2022-11-17T13:12:04.118Z,67.90
2022-11-17T13:17:03.701Z,66.50
2022-11-17T13:22:03.831Z,64.10
2022-11-17T13:42:34.322Z,62.80
2022-11-17T13:47:53.683Z,63.10
2022-11-17T13:50:34.650Z,62.60
2022-11-17T13:53:06.197Z,61.70
2022-11-17T13:55:35.279Z,63.00
2022-11-17T13:58:06.391Z,61.40
2022-11-17T14:00:34.952Z,62.90
2022-11-17T14:03:06.315Z,63.00
2022-11-17T14:08:14.825Z,61.60
2022-11-17T14:10:42.901Z,61.70
2022-11-17T14:23:34.465Z,61.00
2022-11-17T14:26:02.482Z,61.80
2022-11-17T14:28:30.444Z,62.00
2022-11-17T14:30:59.552Z,62.00
2022-11-17T14:33:27.632Z,62.40
2022-11-17T14:36:00.222Z,62.40
2022-11-17T14:40:56.777Z,61.60
2022-11-17T14:43:24.850Z,63.70
2022-11-17T14:45:52.979Z,62.80
2022-11-17T14:48:22.292Z,61.70
2022-11-17T14:50:56.191Z,62.70
2022-11-17T14:55:54.670Z,62.20
2022-11-17T14:58:22.808Z,61.70
2022-11-17T15:00:51.212Z,64.40
2022-11-17T15:03:19.437Z,62.10
2022-11-17T15:05:47.462Z,62.60
2022-11-17T15:08:15.536Z,64.60
2022-11-17T15:10:46.263Z,62.40
2022-11-17T15:13:14.256Z,62.40
2022-11-17T15:15:42.263Z,63.50
2022-11-17T15:18:12.514Z,63.70
2022-11-17T15:20:40.513Z,64.00
2022-11-17T15:23:08.588Z,65.00
2022-11-17T15:25:39.022Z,65.30
2022-11-17T15:28:08.711Z,66.20
2022-11-17T15:30:36.730Z,66.90
2022-11-17T15:33:04.854Z,65.30
2022-11-17T15:35:32.963Z,66.70
2022-11-17T15:38:00.954Z,64.80
2022-11-17T15:40:29.264Z,66.90
2022-11-17T15:42:57.247Z,68.40
2022-11-17T15:45:26.648Z,68.60
2022-11-17T15:47:54.621Z,68.90
2022-11-17T15:50:22.683Z,68.80
2022-11-17T15:53:04.180Z,69.40
2022-11-17T15:55:35.070Z,68.50
2022-11-17T15:58:03.045Z,69.90
2022-11-17T16:00:34.505Z,66.90
2022-11-17T16:03:02.636Z,67.20
2022-11-17T16:05:30.595Z,70.10
2022-11-17T16:07:58.585Z,66.90
2022-11-17T16:10:27.335Z,67.90
2022-11-17T16:12:56.333Z,67.60
2022-11-17T16:15:24.487Z,68.00
2022-11-17T16:17:54.145Z,68.80
2022-11-17T16:20:22.203Z,69.20
2022-11-17T16:22:50.270Z,69.90
2022-11-17T16:25:18.411Z,68.50
2022-11-17T16:27:46.411Z,69.20
2022-11-17T16:30:14.903Z,66.30
2022-11-17T16:32:43.022Z,67.00
2022-11-17T16:35:12.368Z,67.40
2022-11-17T16:40:09.463Z,66.00
2022-11-17T16:42:37.838Z,65.40
2022-11-17T16:45:06.569Z,65.00
2022-11-17T16:47:34.581Z,64.80
2022-11-17T16:50:03.578Z,67.50
2022-11-17T16:52:35.505Z,66.80
2022-11-17T16:55:05.349Z,66.30
2022-11-17T16:57:33.570Z,67.90
2022-11-17T17:00:01.606Z,68.10
2022-11-17T17:02:41.780Z,66.00
2022-11-17T17:05:09.878Z,66.50
2022-11-17T17:07:39.317Z,68.00
2022-11-17T17:10:08.458Z,69.70
2022-11-17T17:12:36.477Z,70.00
2022-11-17T17:15:05.000Z,70.20
2022-11-17T17:17:33.147Z,70.40
2022-11-17T17:20:01.387Z,71.10
2022-11-17T17:22:29.510Z,72.20
2022-11-17T17:24:59.158Z,71.80
2022-11-17T17:27:27.311Z,74.80
2022-11-17T17:29:57.071Z,73.90
2022-11-17T17:32:25.319Z,75.60
2022-11-17T17:34:53.469Z,74.80
2022-11-17T17:37:21.596Z,75.50
2022-11-17T17:39:49.618Z,76.90
2022-11-17T17:42:20.408Z,75.80
2022-11-17T17:44:48.419Z,77.10
2022-11-17T17:47:16.382Z,75.30
2022-11-17T17:49:44.380Z,75.60
2022-11-17T17:52:13.975Z,76.60
2022-11-17T17:54:42.187Z,77.90
2022-11-17T17:57:10.693Z,77.70
2022-11-17T17:59:40.039Z,76.90
2022-11-17T18:02:08.111Z,78.30
2022-11-17T18:04:36.167Z,79.20
2022-11-17T18:07:04.188Z,77.60
2022-11-17T18:09:32.687Z,77.90
2022-11-17T18:12:00.738Z,79.30
2022-11-17T18:14:28.951Z,80.00
2022-11-17T18:16:58.640Z,80.70
2022-11-17T18:19:32.562Z,80.50
2022-11-17T18:22:01.362Z,79.90
2022-11-17T18:24:29.427Z,80.40
2022-11-17T18:26:57.452Z,81.60
2022-11-17T18:29:25.520Z,83.00
2022-11-17T18:31:53.552Z,85.00
2022-11-17T18:34:24.532Z,84.90
2022-11-17T18:36:55.600Z,87.10
2022-11-17T18:39:24.076Z,85.60
2022-11-17T18:41:52.236Z,85.20
2022-11-17T18:44:20.407Z,86.60
2022-11-17T18:46:48.753Z,86.90
2022-11-17T18:49:17.151Z,87.00
2022-11-17T18:51:46.939Z,82.50
2022-11-17T18:54:15.049Z,84.20
2022-11-17T18:56:44.527Z,79.70
2022-11-17T18:59:12.758Z,78.70
2022-11-17T19:01:42.824Z,78.50
2022-11-17T19:04:12.550Z,77.50
2022-11-17T19:06:40.542Z,80.00
2022-11-17T19:09:10.795Z,78.70
2022-11-17T19:11:39.915Z,79.70
2022-11-17T19:14:08.006Z,81.00
2022-11-17T19:16:44.457Z,82.00
2022-11-17T19:19:15.096Z,83.70
2022-11-17T19:21:43.955Z,85.20
2022-11-17T19:24:13.411Z,81.80
2022-11-17T19:26:42.904Z,85.70
2022-11-17T19:29:16.522Z,83.80
2022-11-17T19:31:45.667Z,86.50
2022-11-17T19:34:13.850Z,88.60
2022-11-17T19:36:41.854Z,90.50
2022-11-17T19:39:09.857Z,91.50
2022-11-17T19:41:39.698Z,92.70
2022-11-17T19:44:09.509Z,94.70
2022-11-17T19:46:38.999Z,95.10
2022-11-17T19:51:50.665Z,96.70
2022-11-17T19:54:19.015Z,96.60
2022-11-17T19:56:48.473Z,96.60
2022-11-17T19:59:17.038Z,94.90
2022-11-17T20:01:45.945Z,95.20
2022-11-17T20:04:14.285Z,93.90
2022-11-17T20:06:42.363Z,93.40
2022-11-17T20:09:11.733Z,93.40
2022-11-17T20:11:40.582Z,93.00
2022-11-17T20:14:10.749Z,93.30
2022-11-17T20:16:39.409Z,93.60
2022-11-17T20:19:07.573Z,94.80
2022-11-17T20:21:35.603Z,95.80
2022-11-17T20:24:03.677Z,95.70
2022-11-17T20:26:34.035Z,96.30
2022-11-17T20:29:02.660Z,96.50
2022-11-17T20:31:34.013Z,96.90
2022-11-17T20:34:03.412Z,96.70
2022-11-17T20:36:34.375Z,96.70
2022-11-17T20:39:04.283Z,96.70
2022-11-17T20:41:32.939Z,96.50
2022-11-17T20:44:03.115Z,96.00
2022-11-17T20:46:32.872Z,95.70
2022-11-17T20:49:01.083Z,95.50
2022-11-17T20:51:29.189Z,96.00
2022-11-17T20:53:57.282Z,96.80
2022-11-17T20:56:25.461Z,98.90
2022-11-17T20:58:53.649Z,99.90
2022-11-17T21:01:23.856Z,99.90
2022-11-17T21:03:53.863Z,99.90
2022-11-17T21:06:23.337Z,99.90
2022-11-17T21:08:51.577Z,99.90
2022-11-17T21:11:35.479Z,99.90
2022-11-17T21:14:04.192Z,99.90
2022-11-17T21:16:32.905Z,99.90
2022-11-17T21:19:02.337Z,99.90
2022-11-17T21:21:30.333Z,99.50
2022-11-17T21:23:58.473Z,98.60
2022-11-17T21:26:27.728Z,97.60
2022-11-17T21:28:57.582Z,97.50
2022-11-17T21:31:29.600Z,97.30
2022-11-17T21:33:59.579Z,97.60
2022-11-17T21:36:30.570Z,98.30
2022-11-17T21:38:59.021Z,98.10
2022-11-17T21:41:28.831Z,98.00
2022-11-17T21:43:59.968Z,97.90
2022-11-17T21:46:30.115Z,97.90
2022-11-17T21:48:59.662Z,98.90
2022-11-17T21:51:33.330Z,99.00
2022-11-17T21:54:03.259Z,98.90
2022-11-17T21:56:32.079Z,99.70
2022-11-17T21:59:01.828Z,99.90
2022-11-17T22:01:30.460Z,99.80
2022-11-17T22:03:59.072Z,99.70
2022-11-17T22:06:28.843Z,99.00
2022-11-17T22:08:57.716Z,97.90
2022-11-17T22:11:37.296Z,99.40
2022-11-17T22:14:08.215Z,99.90
2022-11-17T22:16:37.106Z,99.90
2022-11-17T22:19:05.923Z,99.90
2022-11-17T22:21:37.257Z,99.90
2022-11-17T22:24:06.323Z,99.90
2022-11-17T22:26:35.861Z,99.90
2022-11-17T22:29:04.161Z,99.00
2022-11-17T22:31:32.544Z,97.90
2022-11-17T22:34:00.768Z,98.30
2022-11-17T22:36:28.749Z,98.70
2022-11-17T22:38:58.078Z,99.20
2022-11-17T22:41:26.281Z,99.70
2022-11-17T22:43:55.845Z,99.30
2022-11-17T22:46:25.798Z,99.90
2022-11-17T22:48:54.246Z,99.90
2022-11-17T22:51:36.503Z,99.90
2022-11-17T22:54:06.601Z,99.90
2022-11-17T22:56:34.803Z,99.90
2022-11-17T22:59:02.959Z,99.90
2022-11-17T23:01:31.068Z,99.90
2022-11-17T23:03:59.276Z,99.90
2022-11-17T23:06:28.383Z,99.90
2022-11-17T23:08:58.173Z,99.90
2022-11-17T23:11:37.507Z,99.90
2022-11-17T23:14:06.117Z,99.90
2022-11-17T23:16:34.122Z,99.90
2022-11-17T23:19:02.135Z,99.90
2022-11-17T23:21:30.089Z,99.90
2022-11-17T23:23:58.125Z,99.90
2022-11-17T23:26:27.871Z,99.90
2022-11-17T23:28:55.889Z,99.90
2022-11-17T23:31:23.902Z,99.80
2022-11-17T23:33:51.929Z,99.20
2022-11-17T23:36:22.462Z,99.20
2022-11-17T23:38:51.526Z,99.70
2022-11-17T23:41:20.947Z,99.00
2022-11-17T23:43:53.113Z,99.60
2022-11-17T23:46:22.946Z,99.90
2022-11-17T23:48:51.526Z,99.90
2022-11-17T23:51:21.499Z,99.50
2022-11-17T23:53:50.075Z,99.50
2022-11-17T23:56:20.450Z,99.90
2022-11-17T23:58:48.870Z,99.30
